sensor_id;sensor_type;location;lat;lon;timestamp;P1;durP1;ratioP1;P2;durP2;ratioP2
34900;SDS011;21112;51.976;5.660;2022-11-28T00:01:13;8.30;;;3.05;;
34900;SDS011;21112;51.976;5.660;2022-11-28T00:03:39;7.75;;;2.70;;
34900;SDS011;21112;51.976;5.660;2022-11-28T00:06:06;7.63;;;3.00;;
34900;SDS011;21112;51.976;5.660;2022-11-28T00:08:33;6.80;;;2.85;;
34900;SDS011;21112;51.976;5.660;2022-11-28T00:11:01;6.80;;;2.85;;
34900;SDS011;21112;51.976;5.660;2022-11-28T00:13:28;8.68;;;3.33;;
34900;SDS011;21112;51.976;5.660;2022-11-28T00:15:56;9.82;;;3.30;;
34900;SDS011;21112;51.976;5.660;2022-11-28T00:18:24;5.63;;;2.70;;
34900;SDS011;21112;51.976;5.660;2022-11-28T00:20:51;6.57;;;2.85;;
34900;SDS011;21112;51.976;5.660;2022-11-28T00:23:17;6.90;;;3.05;;
34900;SDS011;21112;51.976;5.660;2022-11-28T00:25:44;8.82;;;3.33;;
34900;SDS011;21112;51.976;5.660;2022-11-28T00:28:10;7.13;;;3.00;;
34900;SDS011;21112;51.976;5.660;2022-11-28T00:30:37;7.32;;;3.10;;
34900;SDS011;21112;51.976;5.660;2022-11-28T00:33:03;6.55;;;3.13;;
34900;SDS011;21112;51.976;5.660;2022-11-28T00:35:31;5.88;;;2.65;;
34900;SDS011;21112;51.976;5.660;2022-11-28T00:37:57;8.37;;;3.23;;
34900;SDS011;21112;51.976;5.660;2022-11-28T00:40:24;7.25;;;2.97;;
34900;SDS011;21112;51.976;5.660;2022-11-28T00:42:50;6.97;;;2.97;;
34900;SDS011;21112;51.976;5.660;2022-11-28T00:45:17;7.13;;;2.95;;
34900;SDS011;21112;51.976;5.660;2022-11-28T00:47:43;7.45;;;3.10;;
34900;SDS011;21112;51.976;5.660;2022-11-28T00:50:12;6.20;;;2.90;;
34900;SDS011;21112;51.976;5.660;2022-11-28T00:52:40;5.75;;;2.78;;
34900;SDS011;21112;51.976;5.660;2022-11-28T00:55:07;7.00;;;2.70;;
34900;SDS011;21112;51.976;5.660;2022-11-28T00:57:33;6.72;;;2.45;;
34900;SDS011;21112;51.976;5.660;2022-11-28T00:59:59;6.85;;;2.60;;
34900;SDS011;21112;51.976;5.660;2022-11-28T01:02:26;7.22;;;3.08;;
34900;SDS011;21112;51.976;5.660;2022-11-28T01:04:53;5.53;;;2.72;;
34900;SDS011;21112;51.976;5.660;2022-11-28T01:07:20;6.20;;;2.67;;
34900;SDS011;21112;51.976;5.660;2022-11-28T01:09:48;6.75;;;2.63;;
34900;SDS011;21112;51.976;5.660;2022-11-28T01:12:14;6.72;;;2.95;;
34900;SDS011;21112;51.976;5.660;2022-11-28T01:14:41;6.63;;;2.75;;
34900;SDS011;21112;51.976;5.660;2022-11-28T01:17:08;7.07;;;2.50;;
34900;SDS011;21112;51.976;5.660;2022-11-28T01:19:34;6.43;;;2.75;;
34900;SDS011;21112;51.976;5.660;2022-11-28T01:22:01;6.78;;;2.72;;
34900;SDS011;21112;51.976;5.660;2022-11-28T01:24:27;6.30;;;2.90;;
34900;SDS011;21112;51.976;5.660;2022-11-28T01:26:55;6.32;;;2.63;;
34900;SDS011;21112;51.976;5.660;2022-11-28T01:29:22;6.35;;;2.75;;
34900;SDS011;21112;51.976;5.660;2022-11-28T01:31:48;6.13;;;2.53;;
34900;SDS011;21112;51.976;5.660;2022-11-28T01:34:15;8.23;;;3.13;;
34900;SDS011;21112;51.976;5.660;2022-11-28T01:36:42;6.65;;;2.65;;
34900;SDS011;21112;51.976;5.660;2022-11-28T01:39:08;6.28;;;2.60;;
34900;SDS011;21112;51.976;5.660;2022-11-28T01:41:36;8.18;;;2.70;;
34900;SDS011;21112;51.976;5.660;2022-11-28T01:44:06;6.88;;;2.70;;
34900;SDS011;21112;51.976;5.660;2022-11-28T01:46:34;6.38;;;2.28;;
34900;SDS011;21112;51.976;5.660;2022-11-28T01:49:02;5.88;;;2.47;;
34900;SDS011;21112;51.976;5.660;2022-11-28T01:51:31;7.10;;;2.60;;
34900;SDS011;21112;51.976;5.660;2022-11-28T01:53:58;8.70;;;2.53;;
34900;SDS011;21112;51.976;5.660;2022-11-28T01:56:25;6.78;;;2.83;;
34900;SDS011;21112;51.976;5.660;2022-11-28T01:58:53;7.20;;;2.72;;
34900;SDS011;21112;51.976;5.660;2022-11-28T02:01:21;5.82;;;2.25;;
34900;SDS011;21112;51.976;5.660;2022-11-28T02:03:49;5.85;;;2.30;;
34900;SDS011;21112;51.976;5.660;2022-11-28T02:06:17;5.75;;;2.42;;
34900;SDS011;21112;51.976;5.660;2022-11-28T02:08:44;6.03;;;2.90;;
34900;SDS011;21112;51.976;5.660;2022-11-28T02:13:56;5.80;;;2.13;;
34900;SDS011;21112;51.976;5.660;2022-11-28T02:16:36;5.65;;;2.47;;
34900;SDS011;21112;51.976;5.660;2022-11-28T02:19:13;5.57;;;2.35;;
34900;SDS011;21112;51.976;5.660;2022-11-28T02:21:52;4.97;;;2.40;;
34900;SDS011;21112;51.976;5.660;2022-11-28T02:24:33;6.05;;;2.50;;
34900;SDS011;21112;51.976;5.660;2022-11-28T02:30:04;5.40;;;2.22;;
34900;SDS011;21112;51.976;5.660;2022-11-28T02:32:45;5.03;;;2.40;;
34900;SDS011;21112;51.976;5.660;2022-11-28T02:35:15;4.32;;;2.20;;
34900;SDS011;21112;51.976;5.660;2022-11-28T02:37:46;8.23;;;2.67;;
34900;SDS011;21112;51.976;5.660;2022-11-28T02:40:17;6.00;;;2.17;;
34900;SDS011;21112;51.976;5.660;2022-11-28T02:42:49;5.50;;;2.15;;
34900;SDS011;21112;51.976;5.660;2022-11-28T02:45:19;6.15;;;2.40;;
34900;SDS011;21112;51.976;5.660;2022-11-28T02:47:51;4.30;;;1.98;;
34900;SDS011;21112;51.976;5.660;2022-11-28T02:50:21;6.38;;;2.53;;
34900;SDS011;21112;51.976;5.660;2022-11-28T02:52:50;5.57;;;2.55;;
34900;SDS011;21112;51.976;5.660;2022-11-28T02:55:18;5.05;;;2.13;;
34900;SDS011;21112;51.976;5.660;2022-11-28T02:57:46;4.07;;;2.05;;
34900;SDS011;21112;51.976;5.660;2022-11-28T03:00:23;7.28;;;2.40;;
34900;SDS011;21112;51.976;5.660;2022-11-28T03:02:53;6.30;;;2.58;;
34900;SDS011;21112;51.976;5.660;2022-11-28T03:05:25;5.03;;;1.98;;
34900;SDS011;21112;51.976;5.660;2022-11-28T03:07:57;4.28;;;2.08;;
34900;SDS011;21112;51.976;5.660;2022-11-28T03:10:27;6.18;;;2.60;;
34900;SDS011;21112;51.976;5.660;2022-11-28T03:12:56;5.40;;;2.20;;
34900;SDS011;21112;51.976;5.660;2022-11-28T03:15:26;4.82;;;2.05;;
34900;SDS011;21112;51.976;5.660;2022-11-28T03:17:59;4.20;;;2.03;;
34900;SDS011;21112;51.976;5.660;2022-11-28T03:20:28;4.93;;;2.40;;
34900;SDS011;21112;51.976;5.660;2022-11-28T03:23:08;3.78;;;1.95;;
34900;SDS011;21112;51.976;5.660;2022-11-28T03:25:38;5.00;;;2.13;;
34900;SDS011;21112;51.976;5.660;2022-11-28T03:28:08;7.63;;;2.58;;
34900;SDS011;21112;51.976;5.660;2022-11-28T03:30:38;6.05;;;2.40;;
34900;SDS011;21112;51.976;5.660;2022-11-28T03:33:06;3.85;;;1.73;;
34900;SDS011;21112;51.976;5.660;2022-11-28T03:35:35;6.35;;;2.65;;
34900;SDS011;21112;51.976;5.660;2022-11-28T03:38:05;5.30;;;1.85;;
34900;SDS011;21112;51.976;5.660;2022-11-28T03:40:35;4.43;;;2.20;;
34900;SDS011;21112;51.976;5.660;2022-11-28T03:43:07;5.03;;;2.15;;
34900;SDS011;21112;51.976;5.660;2022-11-28T03:45:35;5.07;;;2.20;;
34900;SDS011;21112;51.976;5.660;2022-11-28T03:48:05;4.90;;;2.00;;
34900;SDS011;21112;51.976;5.660;2022-11-28T03:53:01;6.75;;;2.03;;
34900;SDS011;21112;51.976;5.660;2022-11-28T03:55:29;5.05;;;1.90;;
34900;SDS011;21112;51.976;5.660;2022-11-28T03:57:58;9.23;;;2.25;;
34900;SDS011;21112;51.976;5.660;2022-11-28T04:00:26;5.55;;;1.88;;
34900;SDS011;21112;51.976;5.660;2022-11-28T04:02:53;4.03;;;1.83;;
34900;SDS011;21112;51.976;5.660;2022-11-28T04:07:49;4.07;;;1.70;;
34900;SDS011;21112;51.976;5.660;2022-11-28T04:10:19;5.03;;;1.92;;
34900;SDS011;21112;51.976;5.660;2022-11-28T04:12:51;3.70;;;1.90;;
34900;SDS011;21112;51.976;5.660;2022-11-28T04:15:20;4.68;;;2.00;;
34900;SDS011;21112;51.976;5.660;2022-11-28T04:17:51;4.07;;;1.80;;
34900;SDS011;21112;51.976;5.660;2022-11-28T04:20:21;6.60;;;2.05;;
34900;SDS011;21112;51.976;5.660;2022-11-28T04:22:51;4.25;;;1.90;;
34900;SDS011;21112;51.976;5.660;2022-11-28T04:25:21;4.65;;;1.90;;
34900;SDS011;21112;51.976;5.660;2022-11-28T04:27:50;6.25;;;2.08;;
34900;SDS011;21112;51.976;5.660;2022-11-28T04:30:19;3.33;;;1.55;;
34900;SDS011;21112;51.976;5.660;2022-11-28T04:32:47;4.55;;;1.88;;
34900;SDS011;21112;51.976;5.660;2022-11-28T04:35:15;3.10;;;1.80;;
34900;SDS011;21112;51.976;5.660;2022-11-28T04:37:43;5.30;;;1.92;;
34900;SDS011;21112;51.976;5.660;2022-11-28T04:40:13;6.22;;;2.00;;
34900;SDS011;21112;51.976;5.660;2022-11-28T04:42:42;4.85;;;1.73;;
34900;SDS011;21112;51.976;5.660;2022-11-28T04:45:12;4.45;;;1.88;;
34900;SDS011;21112;51.976;5.660;2022-11-28T04:47:39;3.75;;;1.90;;
34900;SDS011;21112;51.976;5.660;2022-11-28T04:50:06;3.65;;;1.60;;
34900;SDS011;21112;51.976;5.660;2022-11-28T04:52:33;5.53;;;2.00;;
34900;SDS011;21112;51.976;5.660;2022-11-28T04:55:02;3.42;;;1.58;;
34900;SDS011;21112;51.976;5.660;2022-11-28T04:57:32;4.28;;;2.08;;
34900;SDS011;21112;51.976;5.660;2022-11-28T05:00:03;5.03;;;1.80;;
34900;SDS011;21112;51.976;5.660;2022-11-28T05:02:34;4.18;;;1.80;;
34900;SDS011;21112;51.976;5.660;2022-11-28T05:05:05;4.07;;;1.35;;
34900;SDS011;21112;51.976;5.660;2022-11-28T05:07:33;5.18;;;2.10;;
34900;SDS011;21112;51.976;5.660;2022-11-28T05:09:59;3.17;;;1.70;;
34900;SDS011;21112;51.976;5.660;2022-11-28T05:12:26;4.63;;;1.90;;
34900;SDS011;21112;51.976;5.660;2022-11-28T05:14:52;3.35;;;1.50;;
34900;SDS011;21112;51.976;5.660;2022-11-28T05:17:20;4.03;;;1.80;;
34900;SDS011;21112;51.976;5.660;2022-11-28T05:19:47;3.47;;;1.63;;
34900;SDS011;21112;51.976;5.660;2022-11-28T05:22:15;5.57;;;1.93;;
34900;SDS011;21112;51.976;5.660;2022-11-28T05:24:41;3.72;;;1.65;;
34900;SDS011;21112;51.976;5.660;2022-11-28T05:27:07;3.97;;;1.90;;
34900;SDS011;21112;51.976;5.660;2022-11-28T05:29:38;4.35;;;1.80;;
34900;SDS011;21112;51.976;5.660;2022-11-28T05:32:07;4.15;;;1.83;;
34900;SDS011;21112;51.976;5.660;2022-11-28T05:34:35;4.05;;;1.85;;
34900;SDS011;21112;51.976;5.660;2022-11-28T05:37:02;3.83;;;1.70;;
34900;SDS011;21112;51.976;5.660;2022-11-28T05:39:29;3.22;;;1.55;;
34900;SDS011;21112;51.976;5.660;2022-11-28T05:41:55;3.58;;;1.77;;
34900;SDS011;21112;51.976;5.660;2022-11-28T05:44:22;4.10;;;1.70;;
34900;SDS011;21112;51.976;5.660;2022-11-28T05:46:49;5.78;;;1.50;;
34900;SDS011;21112;51.976;5.660;2022-11-28T05:49:15;3.88;;;1.63;;
34900;SDS011;21112;51.976;5.660;2022-11-28T05:51:46;3.58;;;1.63;;
34900;SDS011;21112;51.976;5.660;2022-11-28T05:54:12;4.00;;;1.80;;
34900;SDS011;21112;51.976;5.660;2022-11-28T05:56:39;3.92;;;1.70;;
34900;SDS011;21112;51.976;5.660;2022-11-28T05:59:05;4.75;;;1.60;;
34900;SDS011;21112;51.976;5.660;2022-11-28T06:01:32;3.88;;;1.65;;
34900;SDS011;21112;51.976;5.660;2022-11-28T06:03:58;4.53;;;1.70;;
34900;SDS011;21112;51.976;5.660;2022-11-28T06:06:26;4.95;;;1.77;;
34900;SDS011;21112;51.976;5.660;2022-11-28T06:08:55;3.72;;;1.75;;
34900;SDS011;21112;51.976;5.660;2022-11-28T06:11:23;2.60;;;1.40;;
34900;SDS011;21112;51.976;5.660;2022-11-28T06:13:49;3.15;;;1.70;;
34900;SDS011;21112;51.976;5.660;2022-11-28T06:16:17;3.40;;;1.70;;
34900;SDS011;21112;51.976;5.660;2022-11-28T06:18:43;3.28;;;1.35;;
34900;SDS011;21112;51.976;5.660;2022-11-28T06:21:11;3.10;;;1.40;;
34900;SDS011;21112;51.976;5.660;2022-11-28T06:23:38;3.53;;;1.80;;
34900;SDS011;21112;51.976;5.660;2022-11-28T06:26:07;4.22;;;1.60;;
34900;SDS011;21112;51.976;5.660;2022-11-28T06:28:34;2.95;;;1.50;;
34900;SDS011;21112;51.976;5.660;2022-11-28T06:31:01;4.05;;;1.42;;
34900;SDS011;21112;51.976;5.660;2022-11-28T06:33:27;3.38;;;1.60;;
34900;SDS011;21112;51.976;5.660;2022-11-28T06:35:57;3.03;;;1.52;;
34900;SDS011;21112;51.976;5.660;2022-11-28T06:38:24;4.32;;;1.80;;
34900;SDS011;21112;51.976;5.660;2022-11-28T06:40:50;4.05;;;1.70;;
34900;SDS011;21112;51.976;5.660;2022-11-28T06:43:18;3.55;;;1.70;;
34900;SDS011;21112;51.976;5.660;2022-11-28T06:45:45;3.17;;;1.35;;
34900;SDS011;21112;51.976;5.660;2022-11-28T06:48:11;2.63;;;1.60;;
34900;SDS011;21112;51.976;5.660;2022-11-28T06:50:38;3.90;;;1.67;;
34900;SDS011;21112;51.976;5.660;2022-11-28T06:53:04;3.47;;;1.55;;
34900;SDS011;21112;51.976;5.660;2022-11-28T06:55:31;3.92;;;1.50;;
34900;SDS011;21112;51.976;5.660;2022-11-28T06:57:57;3.72;;;1.85;;
34900;SDS011;21112;51.976;5.660;2022-11-28T07:00:28;3.78;;;1.55;;
34900;SDS011;21112;51.976;5.660;2022-11-28T07:02:55;2.42;;;1.35;;
34900;SDS011;21112;51.976;5.660;2022-11-28T07:05:22;3.30;;;1.60;;
34900;SDS011;21112;51.976;5.660;2022-11-28T07:07:51;4.07;;;1.58;;
34900;SDS011;21112;51.976;5.660;2022-11-28T07:10:18;2.90;;;1.52;;
34900;SDS011;21112;51.976;5.660;2022-11-28T07:12:45;3.80;;;1.80;;
34900;SDS011;21112;51.976;5.660;2022-11-28T07:15:11;3.08;;;1.30;;
34900;SDS011;21112;51.976;5.660;2022-11-28T07:17:39;3.50;;;1.50;;
34900;SDS011;21112;51.976;5.660;2022-11-28T07:20:07;3.35;;;1.45;;
34900;SDS011;21112;51.976;5.660;2022-11-28T07:22:36;4.35;;;1.80;;
34900;SDS011;21112;51.976;5.660;2022-11-28T07:25:03;2.70;;;1.42;;
34900;SDS011;21112;51.976;5.660;2022-11-28T07:27:30;3.65;;;1.77;;
34900;SDS011;21112;51.976;5.660;2022-11-28T07:29:57;3.83;;;1.77;;
34900;SDS011;21112;51.976;5.660;2022-11-28T07:32:23;2.72;;;1.40;;
34900;SDS011;21112;51.976;5.660;2022-11-28T07:34:51;4.18;;;1.83;;
34900;SDS011;21112;51.976;5.660;2022-11-28T07:37:18;3.73;;;1.57;;
34900;SDS011;21112;51.976;5.660;2022-11-28T07:39:44;3.92;;;1.63;;
34900;SDS011;21112;51.976;5.660;2022-11-28T07:42:11;3.58;;;1.70;;
34900;SDS011;21112;51.976;5.660;2022-11-28T07:44:40;3.67;;;1.58;;
34900;SDS011;21112;51.976;5.660;2022-11-28T07:47:06;2.95;;;1.75;;
34900;SDS011;21112;51.976;5.660;2022-11-28T07:49:32;3.75;;;1.73;;
34900;SDS011;21112;51.976;5.660;2022-11-28T07:52:00;4.18;;;1.88;;
34900;SDS011;21112;51.976;5.660;2022-11-28T07:54:27;2.73;;;1.40;;
34900;SDS011;21112;51.976;5.660;2022-11-28T07:56:53;2.78;;;1.52;;
34900;SDS011;21112;51.976;5.660;2022-11-28T07:59:20;3.97;;;1.77;;
34900;SDS011;21112;51.976;5.660;2022-11-28T08:01:46;2.88;;;1.42;;
34900;SDS011;21112;51.976;5.660;2022-11-28T08:04:13;3.20;;;1.40;;
34900;SDS011;21112;51.976;5.660;2022-11-28T08:06:40;3.00;;;1.40;;
34900;SDS011;21112;51.976;5.660;2022-11-28T08:09:08;2.47;;;1.25;;
34900;SDS011;21112;51.976;5.660;2022-11-28T08:11:36;4.20;;;1.73;;
34900;SDS011;21112;51.976;5.660;2022-11-28T08:14:03;2.53;;;1.20;;
34900;SDS011;21112;51.976;5.660;2022-11-28T08:16:31;3.72;;;1.42;;
34900;SDS011;21112;51.976;5.660;2022-11-28T08:18:58;4.05;;;1.60;;
34900;SDS011;21112;51.976;5.660;2022-11-28T08:21:27;3.70;;;1.52;;
34900;SDS011;21112;51.976;5.660;2022-11-28T08:23:54;3.38;;;1.48;;
34900;SDS011;21112;51.976;5.660;2022-11-28T08:26:23;3.08;;;1.60;;
34900;SDS011;21112;51.976;5.660;2022-11-28T08:28:50;3.03;;;1.52;;
34900;SDS011;21112;51.976;5.660;2022-11-28T08:31:18;3.72;;;1.33;;
34900;SDS011;21112;51.976;5.660;2022-11-28T08:33:46;3.05;;;1.50;;
34900;SDS011;21112;51.976;5.660;2022-11-28T08:36:13;4.75;;;1.70;;
34900;SDS011;21112;51.976;5.660;2022-11-28T08:38:42;2.78;;;1.60;;
34900;SDS011;21112;51.976;5.660;2022-11-28T08:41:10;2.72;;;1.70;;
34900;SDS011;21112;51.976;5.660;2022-11-28T08:43:38;3.25;;;1.60;;
34900;SDS011;21112;51.976;5.660;2022-11-28T08:46:07;2.75;;;1.55;;
34900;SDS011;21112;51.976;5.660;2022-11-28T08:48:34;3.90;;;1.58;;
34900;SDS011;21112;51.976;5.660;2022-11-28T08:51:00;3.42;;;1.65;;
34900;SDS011;21112;51.976;5.660;2022-11-28T08:53:27;2.88;;;1.52;;
34900;SDS011;21112;51.976;5.660;2022-11-28T08:55:54;3.38;;;1.70;;
34900;SDS011;21112;51.976;5.660;2022-11-28T08:58:22;3.75;;;1.73;;
34900;SDS011;21112;51.976;5.660;2022-11-28T09:00:51;3.92;;;1.73;;
34900;SDS011;21112;51.976;5.660;2022-11-28T09:03:18;3.70;;;1.80;;
34900;SDS011;21112;51.976;5.660;2022-11-28T09:05:45;5.25;;;1.80;;
34900;SDS011;21112;51.976;5.660;2022-11-28T09:08:12;3.88;;;1.65;;
34900;SDS011;21112;51.976;5.660;2022-11-28T09:10:38;3.58;;;1.80;;
34900;SDS011;21112;51.976;5.660;2022-11-28T09:13:05;2.92;;;1.40;;
34900;SDS011;21112;51.976;5.660;2022-11-28T09:15:33;3.58;;;1.70;;
34900;SDS011;21112;51.976;5.660;2022-11-28T09:18:02;3.83;;;1.70;;
34900;SDS011;21112;51.976;5.660;2022-11-28T09:20:28;4.17;;;1.87;;
34900;SDS011;21112;51.976;5.660;2022-11-28T09:22:58;4.38;;;1.70;;
34900;SDS011;21112;51.976;5.660;2022-11-28T09:25:24;3.72;;;1.83;;
34900;SDS011;21112;51.976;5.660;2022-11-28T09:27:51;3.80;;;1.90;;
34900;SDS011;21112;51.976;5.660;2022-11-28T09:30:18;3.72;;;1.85;;
34900;SDS011;21112;51.976;5.660;2022-11-28T09:32:47;3.75;;;1.70;;
34900;SDS011;21112;51.976;5.660;2022-11-28T09:35:15;4.65;;;1.88;;
34900;SDS011;21112;51.976;5.660;2022-11-28T09:37:41;2.58;;;1.65;;
34900;SDS011;21112;51.976;5.660;2022-11-28T09:40:10;4.07;;;1.83;;
34900;SDS011;21112;51.976;5.660;2022-11-28T09:42:40;2.92;;;1.70;;
34900;SDS011;21112;51.976;5.660;2022-11-28T09:45:10;3.90;;;1.55;;
34900;SDS011;21112;51.976;5.660;2022-11-28T09:47:38;7.55;;;1.90;;
34900;SDS011;21112;51.976;5.660;2022-11-28T09:52:37;3.13;;;1.38;;
34900;SDS011;21112;51.976;5.660;2022-11-28T09:55:10;4.43;;;1.67;;
34900;SDS011;21112;51.976;5.660;2022-11-28T09:57:40;2.85;;;1.63;;
34900;SDS011;21112;51.976;5.660;2022-11-28T10:00:10;3.47;;;1.73;;
34900;SDS011;21112;51.976;5.660;2022-11-28T10:02:42;2.80;;;1.60;;
34900;SDS011;21112;51.976;5.660;2022-11-28T10:05:11;3.30;;;1.65;;
34900;SDS011;21112;51.976;5.660;2022-11-28T10:07:48;4.68;;;2.05;;
34900;SDS011;21112;51.976;5.660;2022-11-28T10:10:18;3.85;;;2.03;;
34900;SDS011;21112;51.976;5.660;2022-11-28T10:12:50;3.90;;;2.08;;
34900;SDS011;21112;51.976;5.660;2022-11-28T10:15:22;4.28;;;1.73;;
34900;SDS011;21112;51.976;5.660;2022-11-28T10:17:53;2.95;;;1.50;;
34900;SDS011;21112;51.976;5.660;2022-11-28T10:20:24;5.80;;;2.08;;
34900;SDS011;21112;51.976;5.660;2022-11-28T10:22:54;2.78;;;1.67;;
34900;SDS011;21112;51.976;5.660;2022-11-28T10:25:23;3.45;;;1.63;;
34900;SDS011;21112;51.976;5.660;2022-11-28T10:27:52;3.85;;;1.52;;
34900;SDS011;21112;51.976;5.660;2022-11-28T10:30:20;4.53;;;1.80;;
34900;SDS011;21112;51.976;5.660;2022-11-28T10:32:51;3.65;;;1.70;;
34900;SDS011;21112;51.976;5.660;2022-11-28T10:35:21;3.97;;;1.80;;
34900;SDS011;21112;51.976;5.660;2022-11-28T10:37:51;3.42;;;1.77;;
34900;SDS011;21112;51.976;5.660;2022-11-28T10:40:22;4.07;;;2.10;;
34900;SDS011;21112;51.976;5.660;2022-11-28T10:42:51;4.10;;;2.05;;
34900;SDS011;21112;51.976;5.660;2022-11-28T10:45:23;3.70;;;1.77;;
34900;SDS011;21112;51.976;5.660;2022-11-28T10:47:55;4.72;;;1.95;;
34900;SDS011;21112;51.976;5.660;2022-11-28T10:50:30;4.28;;;1.77;;
34900;SDS011;21112;51.976;5.660;2022-11-28T10:52:59;3.83;;;1.80;;
34900;SDS011;21112;51.976;5.660;2022-11-28T10:55:30;4.27;;;2.10;;
34900;SDS011;21112;51.976;5.660;2022-11-28T10:58:01;3.92;;;1.80;;
34900;SDS011;21112;51.976;5.660;2022-11-28T11:00:29;5.47;;;2.22;;
34900;SDS011;21112;51.976;5.660;2022-11-28T11:02:56;4.25;;;1.55;;
34900;SDS011;21112;51.976;5.660;2022-11-28T11:05:27;4.57;;;1.98;;
34900;SDS011;21112;51.976;5.660;2022-11-28T11:07:55;4.18;;;1.98;;
34900;SDS011;21112;51.976;5.660;2022-11-28T11:10:24;4.35;;;1.85;;
34900;SDS011;21112;51.976;5.660;2022-11-28T11:12:53;3.95;;;1.70;;
34900;SDS011;21112;51.976;5.660;2022-11-28T11:15:21;4.25;;;1.83;;
34900;SDS011;21112;51.976;5.660;2022-11-28T11:17:48;4.18;;;2.13;;
34900;SDS011;21112;51.976;5.660;2022-11-28T11:23:04;3.58;;;1.90;;
34900;SDS011;21112;51.976;5.660;2022-11-28T11:25:36;3.67;;;1.70;;
34900;SDS011;21112;51.976;5.660;2022-11-28T11:28:11;3.72;;;1.90;;
34900;SDS011;21112;51.976;5.660;2022-11-28T11:30:49;4.47;;;2.00;;
34900;SDS011;21112;51.976;5.660;2022-11-28T11:33:23;4.15;;;1.88;;
34900;SDS011;21112;51.976;5.660;2022-11-28T11:35:51;3.83;;;1.85;;
34900;SDS011;21112;51.976;5.660;2022-11-28T11:38:25;4.20;;;2.10;;
34900;SDS011;21112;51.976;5.660;2022-11-28T11:40:54;4.70;;;2.10;;
34900;SDS011;21112;51.976;5.660;2022-11-28T11:43:26;4.82;;;2.25;;
34900;SDS011;21112;51.976;5.660;2022-11-28T11:46:03;5.43;;;2.47;;
34900;SDS011;21112;51.976;5.660;2022-11-28T11:48:33;3.85;;;2.03;;
34900;SDS011;21112;51.976;5.660;2022-11-28T11:51:00;5.13;;;2.25;;
34900;SDS011;21112;51.976;5.660;2022-11-28T11:53:29;5.40;;;2.20;;
34900;SDS011;21112;51.976;5.660;2022-11-28T11:55:57;6.38;;;2.10;;
34900;SDS011;21112;51.976;5.660;2022-11-28T11:58:27;5.28;;;2.15;;
34900;SDS011;21112;51.976;5.660;2022-11-28T12:00:57;4.78;;;2.15;;
34900;SDS011;21112;51.976;5.660;2022-11-28T12:03:25;5.28;;;2.13;;
34900;SDS011;21112;51.976;5.660;2022-11-28T12:05:55;5.50;;;2.08;;
34900;SDS011;21112;51.976;5.660;2022-11-28T12:08:23;6.30;;;2.53;;
34900;SDS011;21112;51.976;5.660;2022-11-28T12:10:52;5.35;;;2.35;;
34900;SDS011;21112;51.976;5.660;2022-11-28T12:13:21;8.20;;;2.72;;
34900;SDS011;21112;51.976;5.660;2022-11-28T12:15:56;3.90;;;2.08;;
34900;SDS011;21112;51.976;5.660;2022-11-28T12:18:29;4.68;;;2.30;;
34900;SDS011;21112;51.976;5.660;2022-11-28T12:21:04;4.85;;;2.38;;
34900;SDS011;21112;51.976;5.660;2022-11-28T12:23:49;5.40;;;2.33;;
34900;SDS011;21112;51.976;5.660;2022-11-28T12:26:19;5.85;;;2.35;;
34900;SDS011;21112;51.976;5.660;2022-11-28T12:28:53;6.13;;;2.28;;
34900;SDS011;21112;51.976;5.660;2022-11-28T12:31:27;4.88;;;2.17;;
34900;SDS011;21112;51.976;5.660;2022-11-28T12:34:00;5.50;;;2.35;;
34900;SDS011;21112;51.976;5.660;2022-11-28T12:36:31;5.13;;;2.08;;
34900;SDS011;21112;51.976;5.660;2022-11-28T12:39:02;6.85;;;2.88;;
34900;SDS011;21112;51.976;5.660;2022-11-28T12:41:44;5.97;;;2.40;;
34900;SDS011;21112;51.976;5.660;2022-11-28T12:44:14;4.30;;;2.00;;
34900;SDS011;21112;51.976;5.660;2022-11-28T12:46:45;5.00;;;2.28;;
34900;SDS011;21112;51.976;5.660;2022-11-28T12:49:17;5.85;;;2.30;;
34900;SDS011;21112;51.976;5.660;2022-11-28T12:51:49;5.15;;;2.15;;
34900;SDS011;21112;51.976;5.660;2022-11-28T12:54:30;6.05;;;2.13;;
34900;SDS011;21112;51.976;5.660;2022-11-28T12:57:00;6.43;;;2.50;;
34900;SDS011;21112;51.976;5.660;2022-11-28T12:59:33;6.95;;;3.10;;
34900;SDS011;21112;51.976;5.660;2022-11-28T13:02:06;7.25;;;2.67;;
34900;SDS011;21112;51.976;5.660;2022-11-28T13:04:46;7.07;;;2.72;;
34900;SDS011;21112;51.976;5.660;2022-11-28T13:07:16;5.57;;;2.53;;
34900;SDS011;21112;51.976;5.660;2022-11-28T13:09:47;9.43;;;3.45;;
34900;SDS011;21112;51.976;5.660;2022-11-28T13:12:19;6.25;;;2.65;;
34900;SDS011;21112;51.976;5.660;2022-11-28T13:14:50;9.18;;;3.38;;
34900;SDS011;21112;51.976;5.660;2022-11-28T13:17:21;8.90;;;3.85;;
34900;SDS011;21112;51.976;5.660;2022-11-28T13:19:51;8.18;;;3.72;;
34900;SDS011;21112;51.976;5.660;2022-11-28T13:22:21;8.18;;;3.80;;
34900;SDS011;21112;51.976;5.660;2022-11-28T13:25:00;6.63;;;3.00;;
34900;SDS011;21112;51.976;5.660;2022-11-28T13:27:33;7.95;;;3.35;;
34900;SDS011;21112;51.976;5.660;2022-11-28T13:30:07;6.88;;;3.33;;
34900;SDS011;21112;51.976;5.660;2022-11-28T13:32:41;8.32;;;3.70;;
34900;SDS011;21112;51.976;5.660;2022-11-28T13:35:09;11.57;;;4.72;;
34900;SDS011;21112;51.976;5.660;2022-11-28T13:37:39;11.52;;;4.38;;
34900;SDS011;21112;51.976;5.660;2022-11-28T13:40:12;11.00;;;4.13;;
34900;SDS011;21112;51.976;5.660;2022-11-28T13:42:43;11.35;;;4.28;;
34900;SDS011;21112;51.976;5.660;2022-11-28T13:45:18;11.60;;;4.70;;
34900;SDS011;21112;51.976;5.660;2022-11-28T13:47:46;10.38;;;4.57;;
34900;SDS011;21112;51.976;5.660;2022-11-28T13:50:32;11.00;;;4.60;;
34900;SDS011;21112;51.976;5.660;2022-11-28T13:53:01;8.25;;;3.17;;
34900;SDS011;21112;51.976;5.660;2022-11-28T13:55:41;10.13;;;4.32;;
34900;SDS011;21112;51.976;5.660;2022-11-28T13:58:17;9.40;;;3.60;;
34900;SDS011;21112;51.976;5.660;2022-11-28T14:01:01;10.85;;;3.97;;
34900;SDS011;21112;51.976;5.660;2022-11-28T14:03:31;8.82;;;3.83;;
34900;SDS011;21112;51.976;5.660;2022-11-28T14:05:59;10.02;;;3.83;;
34900;SDS011;21112;51.976;5.660;2022-11-28T14:08:27;6.88;;;3.45;;
34900;SDS011;21112;51.976;5.660;2022-11-28T14:11:07;9.52;;;3.60;;
34900;SDS011;21112;51.976;5.660;2022-11-28T14:13:44;10.98;;;4.43;;
34900;SDS011;21112;51.976;5.660;2022-11-28T14:16:19;10.98;;;3.83;;
34900;SDS011;21112;51.976;5.660;2022-11-28T14:19:00;8.50;;;4.05;;
34900;SDS011;21112;51.976;5.660;2022-11-28T14:21:31;8.38;;;3.58;;
34900;SDS011;21112;51.976;5.660;2022-11-28T14:24:04;8.82;;;3.55;;
34900;SDS011;21112;51.976;5.660;2022-11-28T14:26:35;10.13;;;3.58;;
34900;SDS011;21112;51.976;5.660;2022-11-28T14:29:03;9.20;;;3.95;;
34900;SDS011;21112;51.976;5.660;2022-11-28T14:31:30;10.23;;;3.90;;
34900;SDS011;21112;51.976;5.660;2022-11-28T14:34:00;7.53;;;3.30;;
34900;SDS011;21112;51.976;5.660;2022-11-28T14:36:28;10.55;;;3.83;;
34900;SDS011;21112;51.976;5.660;2022-11-28T14:39:08;8.18;;;3.85;;
34900;SDS011;21112;51.976;5.660;2022-11-28T14:47:26;9.18;;;3.40;;
34900;SDS011;21112;51.976;5.660;2022-11-28T14:52:36;10.13;;;3.97;;
34900;SDS011;21112;51.976;5.660;2022-11-28T14:55:04;9.88;;;4.18;;
34900;SDS011;21112;51.976;5.660;2022-11-28T14:57:50;9.07;;;4.25;;
34900;SDS011;21112;51.976;5.660;2022-11-28T15:00:20;11.18;;;4.38;;
34900;SDS011;21112;51.976;5.660;2022-11-28T15:02:58;10.32;;;3.95;;
34900;SDS011;21112;51.976;5.660;2022-11-28T15:05:31;8.82;;;3.75;;
34900;SDS011;21112;51.976;5.660;2022-11-28T15:08:09;11.05;;;4.18;;
34900;SDS011;21112;51.976;5.660;2022-11-28T15:10:41;11.80;;;4.15;;
34900;SDS011;21112;51.976;5.660;2022-11-28T15:13:14;10.05;;;3.80;;
34900;SDS011;21112;51.976;5.660;2022-11-28T15:15:47;10.10;;;3.90;;
34900;SDS011;21112;51.976;5.660;2022-11-28T15:18:15;10.30;;;3.70;;
34900;SDS011;21112;51.976;5.660;2022-11-28T15:20:44;10.40;;;3.92;;
34900;SDS011;21112;51.976;5.660;2022-11-28T15:23:22;9.68;;;4.13;;
34900;SDS011;21112;51.976;5.660;2022-11-28T15:25:51;11.25;;;3.88;;